首页
METAR-TAF:

METAR-TAF

机场 :

洛杉磯國際機場

洛杉矶, 加利福尼亚州, 美国

纬度: 33-56-17N, 经度: 118-23-20W, 海拔: 38米

当前天气观测

该预报发布于25分钟前的07:53 UTC
风速5节,风向东转东北
温度 16°C
湿度 82%
气压 1016 hPa
能見度: 6.4公里
少量云层高于800英尺
散云层高于15000英尺
散云层高于20000英尺
多云层高于25000英尺
轻雾

METAR: KLAX 200753Z 06005KT 4SM BR FEW008 SCT150 SCT200 BKN250 16/13 A3001 RMK AO2 SLP162 T01560128 402110117

时间: 00:18 (08:18 UTC)

预报

该预报发布于2小时和14分钟前的06:04 UTC
预报有效从20日的 06点(UTC)到 21日的 12点(UTC)
风速3节,风向多变
能見度: 6.4公里
多云层高于20000英尺
轻雾
从 20日的 1600点(UTC)
风速3节,风向多变
能見度: 10公里
多云层高于20000英尺
从 20日的 1900点(UTC)
风速10节,风向西转西南
能見度: 10公里
多云层高于20000英尺
从 21日的 0300点(UTC)
风速3节,风向多变
能見度: 10公里
多云层高于20000英尺
从 21日的 0900点(UTC)
风速6节,风向东南
能見度: 10公里
多云层高于2500英尺

TAF: KLAX 200604Z 2006/2112 VRB03KT 4SM BR BKN200 FM201600 VRB03KT P6SM BKN200 FM201900 25010KT P6SM BKN200 FM210300 VRB03KT P6SM BKN200 FM210900 14006KT P6SM BKN025

超过4000个机场的气象观测和天气预报(METAR&TAF报告)。

可查询的气象台以黄色和红色小点在地图上表示。

将鼠标移到小点上方,可查看气象台名称。

然后点击查看天气观测和预报。

如需切换地图:点击带黑十字的绿色按钮放大地图;点击带横线的绿色按钮缩小地图;或者点击绿色箭头查看邻近地区的地图。


METAR-TAF: